KNSE/NSE METAR and TAF weather

Enter ICAO airport designator
Station Type Date Time Source
KNSE METAR 2019/11/14 03:56 UTC NOAA

KNSE 140356Z 02003KT 10SM BKN250 03/00 A3025 RMK AO2 SLP234 T00280000 $


Station Type Date Time Source
KNSE Decoded METAR 2019/11/14 03:56 UTC NOAA

MILTON WHITING FIELD (NORTH), FL, United States (KNSE) 30-44N 87-01W 60M
Nov 13, 2019 - 10:56 PM EST / 2019.11.14 0356 UTC
Wind: from the NNE (020 degrees) at 3 MPH (3 KT):0
Visibility: 10 mile(s):0
Sky conditions: mostly cloudy
Temperature: 37.0 F (2.8 C)
Dew Point: 32.0 F (0.0 C)
Relative Humidity: 81%
Pressure (altimeter): 30.25 in. Hg (1024 hPa)
ob: KNSE 140356Z 02003KT 10SM BKN250 03/00 A3025 RMK AO2 SLP234 T00280000
cycle: 4

Station Type Date Time Source
KNSE TAF 2019/11/13 23:21 UTC NOAA

TAF COR KNSE 1323/1423 VRB04KT 9999 FEW150 SCT250 QNH3017INS
FM140600 VRB03KT 9999 SCT150 BKN250 QNH3016INS
FM141500 VRB05KT 9999 FEW060 SCT080 BKN150 OVC250 QNH3015INS
FM142200 36008KT 9999 VCSH BKN035 BKN050 OVC120 QNH3013INS AUTOMATED SENSOR METWATCH 1405 TIL 1412 T02/1409Z T14/1419Z COR 2318 FN20031

Example: see airport list